Time;durP1;ratioP1;P1;durP2;ratioP2;P2;SDS_P1;SDS_P2;PMS_P1;PMS_P2;Temp;Humidity;BMP_temperature;BMP_pressure;BME280_temperature;BME280_humidity;BME280_pressure;Samples;Min_cycle;Max_cycle;Signal;HPM_P1;HPM_P2
2020/08/21 08:22:54;;;;;;;0;0;;;;;;;0;0;0;;;;
2020/08/21 08:23:58;;;;;;;0;0;;;;;;;0;0;0;;;;
2020/08/21 08:25:05;;;;;;;0;0;;;;;;;0;0;0;;;;
2020/08/21 08:26:10;;;;;;;0;0;;;;;;;0;0;0;;;;
2020/08/21 08:27:15;;;;;;;0;0;;;;;;;0;0;0;;;;
2020/08/21 08:28:20;;;;;;;0;0;;;;;;;0;0;0;;;;
2020/08/21 08:29:28;;;;;;;0;0;;;;;;;0;0;0;;;;
2020/08/21 08:30:33;;;;;;;0;0;;;;;;;0;0;0;;;;
2020/08/21 08:31:39;;;;;;;0;0;;;;;;;0;0;0;;;;
2020/08/21 08:32:44;;;;;;;0;0;;;;;;;0;0;0;;;;
2020/08/21 08:33:45;;;;;;;0;0;;;;;;;0;0;0;;;;
2020/08/21 08:34:51;;;;;;;0;0;;;;;;;0;0;0;;;;
2020/08/21 08:35:58;;;;;;;0;0;;;;;;;0;0;0;;;;
2020/08/21 08:36:59;;;;;;;0;0;;;;;;;0;0;0;;;;
2020/08/21 08:38:05;;;;;;;0;0;;;;;;;0;0;0;;;;
2020/08/21 08:39:10;;;;;;;0;0;;;;;;;0;0;0;;;;
2020/08/21 08:40:14;;;;;;;0;0;;;;;;;0;0;0;;;;
2020/08/21 08:41:19;;;;;;;0;0;;;;;;;0;0;0;;;;
2020/08/21 08:42:26;;;;;;;0;0;;;;;;;0;0;0;;;;
2020/08/21 08:43:32;;;;;;;0;0;;;;;;;0;0;0;;;;
2020/08/21 08:44:36;;;;;;;0;0;;;;;;;0;0;0;;;;
2020/08/21 08:45:42;;;;;;;0;0;;;;;;;0;0;0;;;;
2020/08/21 08:46:49;;;;;;;0;0;;;;;;;0;0;0;;;;
2020/08/21 08:47:55;;;;;;;0;0;;;;;;;0;0;0;;;;
2020/08/21 08:48:59;;;;;;;0;0;;;;;;;0;0;0;;;;
2020/08/21 08:50:00;;;;;;;0;0;;;;;;;0;0;0;;;;
2020/08/21 08:51:07;;;;;;;0;0;;;;;;;0;0;0;;;;
2020/08/21 08:52:13;;;;;;;0;0;;;;;;;0;0;0;;;;
2020/08/21 08:53:18;;;;;;;0;0;;;;;;;0;0;0;;;;
2020/08/21 08:54:23;;;;;;;0;0;;;;;;;0;0;0;;;;
2020/08/21 08:55:30;;;;;;;0;0;;;;;;;0;0;0;;;;
2020/08/21 08:56:36;;;;;;;0;0;;;;;;;0;0;0;;;;
2020/08/21 08:57:41;;;;;;;0;0;;;;;;;0;0;0;;;;
2020/08/21 08:58:45;;;;;;;0;0;;;;;;;0;0;0;;;;
2020/08/21 08:59:49;;;;;;;0;0;;;;;;;0;0;0;;;;
2020/08/21 09:00:55;;;;;;;0;0;;;;;;;0;0;0;;;;
2020/08/21 09:01:59;;;;;;;0;0;;;;;;;0;0;0;;;;
2020/08/21 09:03:05;;;;;;;0;0;;;;;;;0;0;0;;;;
2020/08/21 09:04:11;;;;;;;0;0;;;;;;;0;0;0;;;;
2020/08/21 09:05:16;;;;;;;0;0;;;;;;;0;0;0;;;;
2020/08/21 09:06:22;;;;;;;0;0;;;;;;;0;0;0;;;;
2020/08/21 09:07:28;;;;;;;0;0;;;;;;;0;0;0;;;;
2020/08/21 09:08:33;;;;;;;0;0;;;;;;;0;0;0;;;;
2020/08/21 09:09:39;;;;;;;0;0;;;;;;;0;0;0;;;;
2020/08/21 09:10:44;;;;;;;0;0;;;;;;;0;0;0;;;;
2020/08/21 09:11:53;;;;;;;0;0;;;;;;;0;0;0;;;;
2020/08/21 09:12:59;;;;;;;0;0;;;;;;;0;0;0;;;;
2020/08/21 09:14:03;;;;;;;0;0;;;;;;;0;0;0;;;;
2020/08/21 09:15:07;;;;;;;0;0;;;;;;;0;0;0;;;;
2020/08/21 09:16:15;;;;;;;0;0;;;;;;;0;0;0;;;;
2020/08/21 09:17:23;;;;;;;0;0;;;;;;;0;0;0;;;;
2020/08/21 09:18:30;;;;;;;0;0;;;;;;;0;0;0;;;;
2020/08/21 09:19:35;;;;;;;0;0;;;;;;;0;0;0;;;;
2020/08/21 09:20:40;;;;;;;0;0;;;;;;;0;0;0;;;;
2020/08/21 09:21:48;;;;;;;0;0;;;;;;;0;0;0;;;;
2020/08/21 09:22:51;;;;;;;0;0;;;;;;;0;0;0;;;;
2020/08/21 09:23:57;;;;;;;0;0;;;;;;;0;0;0;;;;
2020/08/21 09:25:02;;;;;;;0;0;;;;;;;0;0;0;;;;
2020/08/21 09:26:10;;;;;;;0;0;;;;;;;0;0;0;;;;
2020/08/21 09:27:17;;;;;;;0;0;;;;;;;0;0;0;;;;
2020/08/21 09:28:24;;;;;;;0;0;;;;;;;0;0;0;;;;
2020/08/21 09:29:28;;;;;;;0;0;;;;;;;0;0;0;;;;
2020/08/21 09:30:34;;;;;;;0;0;;;;;;;0;0;0;;;;
2020/08/21 09:31:39;;;;;;;0;0;;;;;;;0;0;0;;;;
2020/08/21 09:32:44;;;;;;;0;0;;;;;;;0;0;0;;;;
2020/08/21 09:33:49;;;;;;;0;0;;;;;;;0;0;0;;;;
2020/08/21 09:34:55;;;;;;;0;0;;;;;;;0;0;0;;;;
2020/08/21 09:35:59;;;;;;;0;0;;;;;;;0;0;0;;;;
2020/08/21 09:37:04;;;;;;;0;0;;;;;;;0;0;0;;;;
2020/08/21 09:38:08;;;;;;;0;0;;;;;;;0;0;0;;;;
2020/08/21 09:39:14;;;;;;;0;0;;;;;;;0;0;0;;;;
2020/08/21 09:40:19;;;;;;;0;0;;;;;;;0;0;0;;;;
2020/08/21 09:41:26;;;;;;;0;0;;;;;;;0;0;0;;;;
2020/08/21 09:42:31;;;;;;;0;0;;;;;;;0;0;0;;;;
2020/08/21 09:43:36;;;;;;;0;0;;;;;;;0;0;0;;;;
2020/08/21 09:44:41;;;;;;;0;0;;;;;;;0;0;0;;;;
2020/08/21 09:45:47;;;;;;;0;0;;;;;;;0;0;0;;;;
2020/08/21 09:46:51;;;;;;;0;0;;;;;;;0;0;0;;;;
2020/08/21 09:47:57;;;;;;;0;0;;;;;;;0;0;0;;;;
2020/08/21 09:49:02;;;;;;;0;0;;;;;;;0;0;0;;;;
2020/08/21 09:50:07;;;;;;;0;0;;;;;;;0;0;0;;;;
2020/08/21 09:51:15;;;;;;;0;0;;;;;;;0;0;0;;;;
2020/08/21 09:52:21;;;;;;;0;0;;;;;;;0;0;0;;;;
2020/08/21 09:53:26;;;;;;;3.05;2.8;;;;;;;50.79;27.98633;95058.23;;;;
2020/08/21 09:54:31;;;;;;;3.05;2.8;;;;;;;50.79;27.98633;95058.23;;;;
2020/08/21 09:55:37;;;;;;;3.05;2.8;;;;;;;50.79;27.98633;95058.23;;;;
2020/08/21 09:56:41;;;;;;;3.05;2.8;;;;;;;50.79;27.98633;95058.23;;;;
2020/08/21 09:57:48;;;;;;;3.05;2.8;;;;;;;50.79;27.98633;95058.23;;;;
2020/08/21 09:58:53;;;;;;;3.05;2.8;;;;;;;50.79;27.98633;95058.23;;;;
2020/08/21 09:59:57;;;;;;;3.05;2.8;;;;;;;50.79;27.98633;95058.23;;;;
2020/08/21 10:01:04;;;;;;;3.05;2.8;;;;;;;50.79;27.98633;95058.23;;;;
2020/08/21 10:02:09;;;;;;;3.05;2.8;;;;;;;50.79;27.98633;95058.23;;;;
2020/08/21 10:03:14;;;;;;;3.05;2.8;;;;;;;50.79;27.98633;95058.23;;;;
2020/08/21 10:04:20;;;;;;;3.25;2.7;;;;;;;50.92;24.375;95061.14;;;;
2020/08/21 10:05:26;;;;;;;3.25;2.7;;;;;;;50.92;24.375;95061.14;;;;
2020/08/21 10:06:32;;;;;;;3.25;2.7;;;;;;;50.92;24.375;95061.14;;;;
2020/08/21 10:07:38;;;;;;;3.25;2.7;;;;;;;50.92;24.375;95061.14;;;;
2020/08/21 10:08:43;;;;;;;3.25;2.7;;;;;;;50.92;24.375;95061.14;;;;
2020/08/21 10:09:47;;;;;;;3.25;2.7;;;;;;;50.92;24.375;95061.14;;;;
2020/08/21 10:10:52;;;;;;;3.25;2.7;;;;;;;50.92;24.375;95061.14;;;;
2020/08/21 10:11:56;;;;;;;3.25;2.7;;;;;;;50.92;24.375;95061.14;;;;
2020/08/21 10:13:02;;;;;;;3.25;2.7;;;;;;;50.92;24.375;95061.14;;;;
2020/08/21 10:14:08;;;;;;;3.25;2.7;;;;;;;50.92;24.375;95061.14;;;;
2020/08/21 10:15:12;;;;;;;2.900001;2.7;;;;;;;51.15;22.67578;95061.97;;;;
2020/08/21 10:16:19;;;;;;;2.900001;2.7;;;;;;;51.15;22.67578;95061.97;;;;
2020/08/21 10:17:26;;;;;;;2.900001;2.7;;;;;;;51.15;22.67578;95061.97;;;;
2020/08/21 10:18:31;;;;;;;2.900001;2.7;;;;;;;51.15;22.67578;95061.97;;;;
2020/08/21 10:19:39;;;;;;;2.900001;2.7;;;;;;;51.15;22.67578;95061.97;;;;
2020/08/21 10:20:43;;;;;;;2.900001;2.7;;;;;;;51.15;22.67578;95061.97;;;;
2020/08/21 10:21:47;;;;;;;2.900001;2.7;;;;;;;51.15;22.67578;95061.97;;;;
2020/08/21 10:22:57;;;;;;;2.900001;2.7;;;;;;;51.15;22.67578;95061.97;;;;
2020/08/21 10:23:58;;;;;;;2.900001;2.7;;;;;;;51.15;22.67578;95061.97;;;;
2020/08/21 10:25:03;;;;;;;2.900001;2.7;;;;;;;51.15;22.67578;95061.97;;;;
2020/08/21 10:26:12;;;;;;;3.1;2.8;;;;;;;51.09;21.81738;95053.55;;;;
2020/08/21 10:27:15;;;;;;;3.1;2.8;;;;;;;51.09;21.81738;95053.55;;;;
2020/08/21 10:28:25;;;;;;;3.1;2.8;;;;;;;51.09;21.81738;95053.55;;;;
2020/08/21 10:29:31;;;;;;;3.1;2.8;;;;;;;51.09;21.81738;95053.55;;;;
2020/08/21 10:30:37;;;;;;;3.1;2.8;;;;;;;51.09;21.81738;95053.55;;;;
2020/08/21 10:31:42;;;;;;;3.1;2.8;;;;;;;51.09;21.81738;95053.55;;;;
2020/08/21 10:32:47;;;;;;;3.1;2.8;;;;;;;51.09;21.81738;95053.55;;;;
2020/08/21 10:33:53;;;;;;;3.1;2.8;;;;;;;51.09;21.81738;95053.55;;;;
2020/08/21 10:34:58;;;;;;;3.1;2.8;;;;;;;51.09;21.81738;95053.55;;;;
2020/08/21 10:36:03;;;;;;;3.65;2.8;;;;;;;51.18;20.9541;95050.11;;;;
2020/08/21 10:37:07;;;;;;;3.65;2.8;;;;;;;51.18;20.9541;95050.11;;;;
2020/08/21 10:38:16;;;;;;;3.65;2.8;;;;;;;51.18;20.9541;95050.11;;;;
2020/08/21 10:39:21;;;;;;;3.65;2.8;;;;;;;51.18;20.9541;95050.11;;;;
2020/08/21 10:40:28;;;;;;;3.65;2.8;;;;;;;51.18;20.9541;95050.11;;;;
2020/08/21 10:41:35;;;;;;;3.65;2.8;;;;;;;51.18;20.9541;95050.11;;;;
2020/08/21 10:42:36;;;;;;;3.65;2.8;;;;;;;51.18;20.9541;95050.11;;;;
2020/08/21 10:43:41;;;;;;;3.65;2.8;;;;;;;51.18;20.9541;95050.11;;;;
2020/08/21 10:44:46;;;;;;;3.65;2.8;;;;;;;51.18;20.9541;95050.11;;;;
2020/08/21 10:45:48;;;;;;;3.65;2.8;;;;;;;51.18;20.9541;95050.11;;;;
2020/08/21 10:46:54;;;;;;;2.9;2.7;;;;;;;51.05;20.65039;95038.14;;;;
2020/08/21 10:47:59;;;;;;;2.9;2.7;;;;;;;51.05;20.65039;95038.14;;;;
2020/08/21 10:49:03;;;;;;;2.9;2.7;;;;;;;51.05;20.65039;95038.14;;;;
2020/08/21 10:50:07;;;;;;;2.9;2.7;;;;;;;51.05;20.65039;95038.14;;;;
2020/08/21 10:51:15;;;;;;;2.9;2.7;;;;;;;51.05;20.65039;95038.14;;;;
2020/08/21 10:52:19;;;;;;;2.9;2.7;;;;;;;51.05;20.65039;95038.14;;;;
2020/08/21 10:53:26;;;;;;;2.9;2.7;;;;;;;51.05;20.65039;95038.14;;;;
2020/08/21 10:54:31;;;;;;;2.9;2.7;;;;;;;51.05;20.65039;95038.14;;;;
2020/08/21 10:55:36;;;;;;;2.9;2.7;;;;;;;51.05;20.65039;95038.14;;;;
2020/08/21 10:56:42;;;;;;;2.9;2.7;;;;;;;51.05;20.65039;95038.14;;;;
2020/08/21 10:57:47;;;;;;;3.1;2.8;;;;;;;50.8;20.08105;95037.05;;;;
2020/08/21 10:58:53;;;;;;;3.1;2.8;;;;;;;50.8;20.08105;95037.05;;;;
2020/08/21 10:59:58;;;;;;;3.1;2.8;;;;;;;50.8;20.08105;95037.05;;;;
2020/08/21 11:01:04;;;;;;;3.1;2.8;;;;;;;50.8;20.08105;95037.05;;;;
2020/08/21 11:02:11;;;;;;;3.1;2.8;;;;;;;50.8;20.08105;95037.05;;;;
2020/08/21 11:03:20;;;;;;;3.1;2.8;;;;;;;50.8;20.08105;95037.05;;;;
2020/08/21 11:04:25;;;;;;;3.1;2.8;;;;;;;50.8;20.08105;95037.05;;;;
2020/08/21 11:05:32;;;;;;;3.1;2.8;;;;;;;50.8;20.08105;95037.05;;;;
2020/08/21 11:06:37;;;;;;;3.1;2.8;;;;;;;50.8;20.08105;95037.05;;;;
2020/08/21 11:07:43;;;;;;;3.05;2.7;;;;;;;50.42;19.98242;95041.77;;;;
2020/08/21 11:08:46;;;;;;;3.05;2.7;;;;;;;50.42;19.98242;95041.77;;;;
2020/08/21 11:10:01;;;;;;;3.05;2.7;;;;;;;50.42;19.98242;95041.77;;;;
2020/08/21 11:11:07;;;;;;;3.05;2.7;;;;;;;50.42;19.98242;95041.77;;;;
2020/08/21 11:12:08;;;;;;;3.05;2.7;;;;;;;50.42;19.98242;95041.77;;;;
2020/08/21 11:13:15;;;;;;;3.05;2.7;;;;;;;50.42;19.98242;95041.77;;;;
2020/08/21 11:14:21;;;;;;;3.05;2.7;;;;;;;50.42;19.98242;95041.77;;;;
2020/08/21 11:15:26;;;;;;;3.05;2.7;;;;;;;50.42;19.98242;95041.77;;;;
2020/08/21 11:16:32;;;;;;;3.05;2.7;;;;;;;50.42;19.98242;95041.77;;;;
2020/08/21 11:17:37;;;;;;;3.05;2.7;;;;;;;50.42;19.98242;95041.77;;;;
2020/08/21 11:18:43;;;;;;;3.05;2.7;;;;;;;50.21;19.81934;95036.19;;;;
2020/08/21 11:19:49;;;;;;;3.05;2.7;;;;;;;50.21;19.81934;95036.19;;;;
2020/08/21 11:20:55;;;;;;;3.05;2.7;;;;;;;50.21;19.81934;95036.19;;;;
2020/08/21 11:21:55;;;;;;;3.05;2.7;;;;;;;50.21;19.81934;95036.19;;;;
2020/08/21 11:23:00;;;;;;;3.05;2.7;;;;;;;50.21;19.81934;95036.19;;;;
2020/08/21 11:24:06;;;;;;;3.05;2.7;;;;;;;50.21;19.81934;95036.19;;;;
2020/08/21 11:25:10;;;;;;;3.05;2.7;;;;;;;50.21;19.81934;95036.19;;;;
2020/08/21 11:26:17;;;;;;;3.05;2.7;;;;;;;50.21;19.81934;95036.19;;;;
2020/08/21 11:27:22;;;;;;;3.05;2.7;;;;;;;50.21;19.81934;95036.19;;;;
2020/08/21 11:28:27;;;;;;;3.05;2.7;;;;;;;50.21;19.81934;95036.19;;;;
2020/08/21 11:29:32;;;;;;;2.8;2.6;;;;;;;50.09;19.67188;95030.41;;;;
2020/08/21 11:30:39;;;;;;;2.8;2.6;;;;;;;50.09;19.67188;95030.41;;;;
2020/08/21 11:31:45;;;;;;;2.8;2.6;;;;;;;50.09;19.67188;95030.41;;;;
2020/08/21 11:32:51;;;;;;;2.8;2.6;;;;;;;50.09;19.67188;95030.41;;;;
2020/08/21 11:33:56;;;;;;;2.8;2.6;;;;;;;50.09;19.67188;95030.41;;;;
2020/08/21 11:35:01;;;;;;;2.8;2.6;;;;;;;50.09;19.67188;95030.41;;;;
2020/08/21 11:36:07;;;;;;;2.8;2.6;;;;;;;50.09;19.67188;95030.41;;;;
2020/08/21 11:37:11;;;;;;;2.8;2.6;;;;;;;50.09;19.67188;95030.41;;;;
2020/08/21 11:38:17;;;;;;;2.8;2.6;;;;;;;50.09;19.67188;95030.41;;;;
2020/08/21 11:39:22;;;;;;;4.900001;2.6;;;;;;;49.73;19.71582;95029.77;;;;
2020/08/21 11:40:27;;;;;;;4.900001;2.6;;;;;;;49.73;19.71582;95029.77;;;;
2020/08/21 11:41:31;;;;;;;4.900001;2.6;;;;;;;49.73;19.71582;95029.77;;;;
2020/08/21 11:42:36;;;;;;;4.900001;2.6;;;;;;;49.73;19.71582;95029.77;;;;
2020/08/21 11:43:42;;;;;;;4.900001;2.6;;;;;;;49.73;19.71582;95029.77;;;;
2020/08/21 11:44:51;;;;;;;4.900001;2.6;;;;;;;49.73;19.71582;95029.77;;;;
2020/08/21 11:45:56;;;;;;;4.900001;2.6;;;;;;;49.73;19.71582;95029.77;;;;
2020/08/21 11:47:02;;;;;;;4.900001;2.6;;;;;;;49.73;19.71582;95029.77;;;;
2020/08/21 11:48:06;;;;;;;4.900001;2.6;;;;;;;49.73;19.71582;95029.77;;;;
2020/08/21 11:49:14;;;;;;;4.900001;2.6;;;;;;;49.73;19.71582;95029.77;;;;
2020/08/21 11:50:23;;;;;;;2.8;2.5;;;;;;;49.54;19.81445;95030.22;;;;
2020/08/21 11:51:27;;;;;;;2.8;2.5;;;;;;;49.54;19.81445;95030.22;;;;
2020/08/21 11:52:33;;;;;;;2.8;2.5;;;;;;;49.54;19.81445;95030.22;;;;
2020/08/21 11:53:39;;;;;;;2.8;2.5;;;;;;;49.54;19.81445;95030.22;;;;
2020/08/21 11:54:44;;;;;;;2.8;2.5;;;;;;;49.54;19.81445;95030.22;;;;
2020/08/21 11:55:49;;;;;;;2.8;2.5;;;;;;;49.54;19.81445;95030.22;;;;
2020/08/21 11:56:53;;;;;;;2.8;2.5;;;;;;;49.54;19.81445;95030.22;;;;
2020/08/21 11:57:57;;;;;;;2.8;2.5;;;;;;;49.54;19.81445;95030.22;;;;
2020/08/21 11:58:59;;;;;;;2.8;2.5;;;;;;;49.54;19.81445;95030.22;;;;
2020/08/21 12:00:03;;;;;;;2.8;2.5;;;;;;;49.54;19.81445;95030.22;;;;
2020/08/21 12:01:09;;;;;;;2.8;2.6;;;;;;;49.14;19.54883;95027.09;;;;
2020/08/21 12:02:14;;;;;;;2.8;2.6;;;;;;;49.14;19.54883;95027.09;;;;
2020/08/21 12:03:23;;;;;;;2.8;2.6;;;;;;;49.14;19.54883;95027.09;;;;
2020/08/21 12:04:32;;;;;;;2.8;2.6;;;;;;;49.14;19.54883;95027.09;;;;
2020/08/21 12:05:36;;;;;;;2.8;2.6;;;;;;;49.14;19.54883;95027.09;;;;
2020/08/21 12:06:43;;;;;;;2.8;2.6;;;;;;;49.14;19.54883;95027.09;;;;
2020/08/21 12:07:48;;;;;;;2.8;2.6;;;;;;;49.14;19.54883;95027.09;;;;
2020/08/21 12:08:49;;;;;;;2.8;2.6;;;;;;;49.14;19.54883;95027.09;;;;
2020/08/21 12:09:54;;;;;;;2.8;2.6;;;;;;;49.14;19.54883;95027.09;;;;
2020/08/21 12:10:59;;;;;;;2.8;2.6;;;;;;;49.14;19.54883;95027.09;;;;
2020/08/21 12:12:04;;;;;;;3.1;2.5;;;;;;;48.12;19.96777;95023.58;;;;
2020/08/21 12:13:09;;;;;;;3.1;2.5;;;;;;;48.12;19.96777;95023.58;;;;
2020/08/21 12:14:10;;;;;;;3.1;2.5;;;;;;;48.12;19.96777;95023.58;;;;
2020/08/21 12:15:19;;;;;;;3.1;2.5;;;;;;;48.12;19.96777;95023.58;;;;
2020/08/21 12:16:25;;;;;;;3.1;2.5;;;;;;;48.12;19.96777;95023.58;;;;
2020/08/21 12:17:29;;;;;;;3.1;2.5;;;;;;;48.12;19.96777;95023.58;;;;
2020/08/21 12:18:36;;;;;;;3.1;2.5;;;;;;;48.12;19.96777;95023.58;;;;
2020/08/21 12:19:42;;;;;;;3.1;2.5;;;;;;;48.12;19.96777;95023.58;;;;
2020/08/21 12:20:46;;;;;;;3.1;2.5;;;;;;;48.12;19.96777;95023.58;;;;
2020/08/21 12:21:51;;;;;;;2.5;2.3;;;;;;;47.53;20.12012;95022.6;;;;
2020/08/21 12:22:57;;;;;;;2.5;2.3;;;;;;;47.53;20.12012;95022.6;;;;
2020/08/21 12:24:13;;;;;;;2.5;2.3;;;;;;;47.53;20.12012;95022.6;;;;
2020/08/21 12:25:18;;;;;;;2.5;2.3;;;;;;;47.53;20.12012;95022.6;;;;
2020/08/21 12:26:24;;;;;;;2.5;2.3;;;;;;;47.53;20.12012;95022.6;;;;
2020/08/21 12:27:30;;;;;;;2.5;2.3;;;;;;;47.53;20.12012;95022.6;;;;
2020/08/21 12:28:37;;;;;;;2.5;2.3;;;;;;;47.53;20.12012;95022.6;;;;
2020/08/21 12:29:42;;;;;;;2.5;2.3;;;;;;;47.53;20.12012;95022.6;;;;
2020/08/21 12:30:47;;;;;;;2.5;2.3;;;;;;;47.53;20.12012;95022.6;;;;
2020/08/21 12:31:52;;;;;;;2.5;2.3;;;;;;;47.53;20.12012;95022.6;;;;
2020/08/21 12:32:58;;;;;;;2.6;2.2;;;;;;;47.04;20.42871;95021.01;;;;
2020/08/21 12:34:04;;;;;;;2.6;2.2;;;;;;;47.04;20.42871;95021.01;;;;
2020/08/21 12:35:08;;;;;;;2.6;2.2;;;;;;;47.04;20.42871;95021.01;;;;
2020/08/21 12:36:14;;;;;;;2.6;2.2;;;;;;;47.04;20.42871;95021.01;;;;
2020/08/21 12:37:19;;;;;;;2.6;2.2;;;;;;;47.04;20.42871;95021.01;;;;
2020/08/21 12:38:26;;;;;;;2.6;2.2;;;;;;;47.04;20.42871;95021.01;;;;
2020/08/21 12:39:29;;;;;;;2.6;2.2;;;;;;;47.04;20.42871;95021.01;;;;
2020/08/21 12:40:36;;;;;;;2.6;2.2;;;;;;;47.04;20.42871;95021.01;;;;
2020/08/21 12:41:42;;;;;;;2.6;2.2;;;;;;;47.04;20.42871;95021.01;;;;
2020/08/21 12:42:48;;;;;;;2.6;2.2;;;;;;;47.04;20.42871;95021.01;;;;
2020/08/21 12:43:48;;;;;;;3.3;2.4;;;;;;;46.23;20.58203;95010.3;;;;
2020/08/21 12:44:53;;;;;;;3.3;2.4;;;;;;;46.23;20.58203;95010.3;;;;
2020/08/21 12:45:59;;;;;;;3.3;2.4;;;;;;;46.23;20.58203;95010.3;;;;
2020/08/21 12:47:03;;;;;;;3.3;2.4;;;;;;;46.23;20.58203;95010.3;;;;
2020/08/21 12:48:09;;;;;;;3.3;2.4;;;;;;;46.23;20.58203;95010.3;;;;
2020/08/21 12:49:15;;;;;;;3.3;2.4;;;;;;;46.23;20.58203;95010.3;;;;
2020/08/21 12:50:20;;;;;;;3.3;2.4;;;;;;;46.23;20.58203;95010.3;;;;
2020/08/21 12:51:28;;;;;;;3.3;2.4;;;;;;;46.23;20.58203;95010.3;;;;
2020/08/21 12:52:33;;;;;;;3.3;2.4;;;;;;;46.23;20.58203;95010.3;;;;
2020/08/21 12:53:37;;;;;;;2.3;2.1;;;;;;;45.76;20.85547;95004.06;;;;
2020/08/21 12:54:43;;;;;;;2.3;2.1;;;;;;;45.76;20.85547;95004.06;;;;
2020/08/21 12:55:50;;;;;;;2.3;2.1;;;;;;;45.76;20.85547;95004.06;;;;
2020/08/21 12:56:55;;;;;;;2.3;2.1;;;;;;;45.76;20.85547;95004.06;;;;
2020/08/21 12:58:00;;;;;;;2.3;2.1;;;;;;;45.76;20.85547;95004.06;;;;
2020/08/21 12:59:02;;;;;;;2.3;2.1;;;;;;;45.76;20.85547;95004.06;;;;
2020/08/21 13:00:07;;;;;;;2.3;2.1;;;;;;;45.76;20.85547;95004.06;;;;
2020/08/21 13:01:14;;;;;;;2.3;2.1;;;;;;;45.76;20.85547;95004.06;;;;
2020/08/21 13:02:20;;;;;;;2.3;2.1;;;;;;;45.76;20.85547;95004.06;;;;
2020/08/21 13:03:26;;;;;;;2.3;2.1;;;;;;;45.76;20.85547;95004.06;;;;
2020/08/21 13:04:32;;;;;;;2.4;2.1;;;;;;;45.62;20.34375;94997.92;;;;
2020/08/21 13:05:37;;;;;;;2.4;2.1;;;;;;;45.62;20.34375;94997.92;;;;
2020/08/21 13:06:47;;;;;;;2.4;2.1;;;;;;;45.62;20.34375;94997.92;;;;
2020/08/21 13:07:53;;;;;;;2.4;2.1;;;;;;;45.62;20.34375;94997.92;;;;
2020/08/21 13:08:58;;;;;;;2.4;2.1;;;;;;;45.62;20.34375;94997.92;;;;
2020/08/21 13:10:05;;;;;;;2.4;2.1;;;;;;;45.62;20.34375;94997.92;;;;
2020/08/21 13:11:08;;;;;;;2.4;2.1;;;;;;;45.62;20.34375;94997.92;;;;
2020/08/21 13:12:14;;;;;;;2.4;2.1;;;;;;;45.62;20.34375;94997.92;;;;
2020/08/21 13:13:30;;;;;;;2.4;2.1;;;;;;;45.62;20.34375;94997.92;;;;
2020/08/21 13:14:35;;;;;;;2.4;2.1;;;;;;;45.62;20.34375;94997.92;;;;
2020/08/21 13:15:38;;;;;;;4.5;2.1;;;;;;;45.94;20.04004;94997.42;;;;
2020/08/21 13:16:44;;;;;;;4.5;2.1;;;;;;;45.94;20.04004;94997.42;;;;
2020/08/21 13:17:53;;;;;;;4.5;2.1;;;;;;;45.94;20.04004;94997.42;;;;
2020/08/21 13:18:58;;;;;;;4.5;2.1;;;;;;;45.94;20.04004;94997.42;;;;
2020/08/21 13:20:04;;;;;;;4.5;2.1;;;;;;;45.94;20.04004;94997.42;;;;
2020/08/21 13:21:11;;;;;;;4.5;2.1;;;;;;;45.94;20.04004;94997.42;;;;
2020/08/21 13:22:16;;;;;;;4.5;2.1;;;;;;;45.94;20.04004;94997.42;;;;
2020/08/21 13:23:22;;;;;;;4.5;2.1;;;;;;;45.94;20.04004;94997.42;;;;
2020/08/21 13:24:27;;;;;;;4.5;2.1;;;;;;;45.94;20.04004;94997.42;;;;
2020/08/21 13:25:34;;;;;;;2.3;2.1;;;;;;;46.41;20.22559;94992.14;;;;
2020/08/21 13:26:39;;;;;;;2.3;2.1;;;;;;;46.41;20.22559;94992.14;;;;
2020/08/21 13:27:46;;;;;;;2.3;2.1;;;;;;;46.41;20.22559;94992.14;;;;
2020/08/21 13:28:52;;;;;;;2.3;2.1;;;;;;;46.41;20.22559;94992.14;;;;
2020/08/21 13:29:58;;;;;;;2.3;2.1;;;;;;;46.41;20.22559;94992.14;;;;
2020/08/21 13:31:04;;;;;;;2.3;2.1;;;;;;;46.41;20.22559;94992.14;;;;
2020/08/21 13:32:10;;;;;;;2.3;2.1;;;;;;;46.41;20.22559;94992.14;;;;
2020/08/21 13:33:15;;;;;;;2.3;2.1;;;;;;;46.41;20.22559;94992.14;;;;
2020/08/21 13:34:20;;;;;;;2.3;2.1;;;;;;;46.41;20.22559;94992.14;;;;
2020/08/21 13:35:26;;;;;;;2.3;2.1;;;;;;;46.41;20.22559;94992.14;;;;
2020/08/21 13:36:35;;;;;;;2.3;2.1;;;;;;;47.08;19.29883;94989.51;;;;
2020/08/21 13:37:40;;;;;;;2.3;2.1;;;;;;;47.08;19.29883;94989.51;;;;
2020/08/21 13:38:45;;;;;;;2.3;2.1;;;;;;;47.08;19.29883;94989.51;;;;
2020/08/21 13:39:50;;;;;;;2.3;2.1;;;;;;;47.08;19.29883;94989.51;;;;
2020/08/21 13:40:54;;;;;;;2.3;2.1;;;;;;;47.08;19.29883;94989.51;;;;
2020/08/21 13:42:03;;;;;;;2.3;2.1;;;;;;;47.08;19.29883;94989.51;;;;
2020/08/21 13:43:09;;;;;;;2.3;2.1;;;;;;;47.08;19.29883;94989.51;;;;
2020/08/21 13:44:17;;;;;;;2.3;2.1;;;;;;;47.08;19.29883;94989.51;;;;
2020/08/21 13:45:23;;;;;;;2.3;2.1;;;;;;;47.08;19.29883;94989.51;;;;
2020/08/21 13:46:28;;;;;;;2.1;1.9;;;;;;;47.31;18.09277;94983.79;;;;
2020/08/21 13:47:33;;;;;;;2.1;1.9;;;;;;;47.31;18.09277;94983.79;;;;
2020/08/21 13:48:38;;;;;;;2.1;1.9;;;;;;;47.31;18.09277;94983.79;;;;
2020/08/21 13:49:43;;;;;;;2.1;1.9;;;;;;;47.31;18.09277;94983.79;;;;
2020/08/21 13:50:49;;;;;;;2.1;1.9;;;;;;;47.31;18.09277;94983.79;;;;
2020/08/21 13:51:54;;;;;;;2.1;1.9;;;;;;;47.31;18.09277;94983.79;;;;
2020/08/21 13:53:01;;;;;;;2.1;1.9;;;;;;;47.31;18.09277;94983.79;;;;
2020/08/21 13:54:07;;;;;;;2.1;1.9;;;;;;;47.31;18.09277;94983.79;;;;
2020/08/21 13:55:12;;;;;;;2.1;1.9;;;;;;;47.31;18.09277;94983.79;;;;
2020/08/21 13:56:19;;;;;;;2.1;1.9;;;;;;;47.31;18.09277;94983.79;;;;
2020/08/21 13:57:26;;;;;;;2.3;2.1;;;;;;;48.54;17.06348;94975.14;;;;
2020/08/21 13:58:30;;;;;;;2.3;2.1;;;;;;;48.54;17.06348;94975.14;;;;
2020/08/21 13:59:36;;;;;;;2.3;2.1;;;;;;;48.54;17.06348;94975.14;;;;
2020/08/21 14:00:41;;;;;;;2.3;2.1;;;;;;;48.54;17.06348;94975.14;;;;
2020/08/21 14:01:47;;;;;;;2.3;2.1;;;;;;;48.54;17.06348;94975.14;;;;
2020/08/21 14:02:54;;;;;;;2.3;2.1;;;;;;;48.54;17.06348;94975.14;;;;
2020/08/21 14:03:58;;;;;;;2.3;2.1;;;;;;;48.54;17.06348;94975.14;;;;
2020/08/21 14:05:05;;;;;;;2.3;2.1;;;;;;;48.54;17.06348;94975.14;;;;
2020/08/21 14:06:10;;;;;;;2.3;2.1;;;;;;;48.54;17.06348;94975.14;;;;
2020/08/21 14:07:14;;;;;;;2.3;2.1;;;;;;;48.54;17.06348;94975.14;;;;
2020/08/21 14:08:21;;;;;;;2.4;2.2;;;;;;;49.92;15.59277;94975.12;;;;
2020/08/21 14:09:26;;;;;;;2.4;2.2;;;;;;;49.92;15.59277;94975.12;;;;
2020/08/21 14:10:32;;;;;;;2.4;2.2;;;;;;;49.92;15.59277;94975.12;;;;
2020/08/21 14:11:38;;;;;;;2.4;2.2;;;;;;;49.92;15.59277;94975.12;;;;
2020/08/21 14:12:41;;;;;;;2.4;2.2;;;;;;;49.92;15.59277;94975.12;;;;
2020/08/21 14:13:47;;;;;;;2.4;2.2;;;;;;;49.92;15.59277;94975.12;;;;
2020/08/21 14:14:53;;;;;;;2.4;2.2;;;;;;;49.92;15.59277;94975.12;;;;
2020/08/21 14:15:58;;;;;;;2.4;2.2;;;;;;;49.92;15.59277;94975.12;;;;
2020/08/21 14:17:00;;;;;;;2.4;2.2;;;;;;;49.92;15.59277;94975.12;;;;
2020/08/21 14:18:05;;;;;;;2.4;2.2;;;;;;;49.92;15.59277;94975.12;;;;
2020/08/21 14:19:09;;;;;;;2.25;2;;;;;;;50.47;15.09961;94972.67;;;;
2020/08/21 14:20:15;;;;;;;2.25;2;;;;;;;50.47;15.09961;94972.67;;;;
2020/08/21 14:21:22;;;;;;;2.25;2;;;;;;;50.47;15.09961;94972.67;;;;
2020/08/21 14:22:39;;;;;;;2.25;2;;;;;;;50.47;15.09961;94972.67;;;;
2020/08/21 14:23:43;;;;;;;2.25;2;;;;;;;50.47;15.09961;94972.67;;;;
2020/08/21 14:24:48;;;;;;;2.25;2;;;;;;;50.47;15.09961;94972.67;;;;
2020/08/21 14:25:52;;;;;;;2.25;2;;;;;;;50.47;15.09961;94972.67;;;;
2020/08/21 14:26:57;;;;;;;2.25;2;;;;;;;50.47;15.09961;94972.67;;;;
2020/08/21 14:28:00;;;;;;;2.25;2;;;;;;;50.47;15.09961;94972.67;;;;
2020/08/21 14:29:07;;;;;;;2.2;2.1;;;;;;;50.55;14.6748;94966.64;;;;
2020/08/21 14:30:12;;;;;;;2.2;2.1;;;;;;;50.55;14.6748;94966.64;;;;
2020/08/21 14:31:19;;;;;;;2.2;2.1;;;;;;;50.55;14.6748;94966.64;;;;
2020/08/21 14:32:24;;;;;;;2.2;2.1;;;;;;;50.55;14.6748;94966.64;;;;
2020/08/21 14:33:30;;;;;;;2.2;2.1;;;;;;;50.55;14.6748;94966.64;;;;
2020/08/21 14:34:35;;;;;;;2.2;2.1;;;;;;;50.55;14.6748;94966.64;;;;
2020/08/21 14:35:41;;;;;;;2.2;2.1;;;;;;;50.55;14.6748;94966.64;;;;
2020/08/21 14:36:47;;;;;;;2.2;2.1;;;;;;;50.55;14.6748;94966.64;;;;
2020/08/21 14:37:51;;;;;;;2.2;2.1;;;;;;;50.55;14.6748;94966.64;;;;
2020/08/21 14:38:55;;;;;;;2.2;2.1;;;;;;;50.55;14.6748;94966.64;;;;
2020/08/21 14:39:59;;;;;;;2.1;2;;;;;;;50.36;14.56152;94966.38;;;;
2020/08/21 14:41:05;;;;;;;2.1;2;;;;;;;50.36;14.56152;94966.38;;;;
2020/08/21 14:42:10;;;;;;;2.1;2;;;;;;;50.36;14.56152;94966.38;;;;
2020/08/21 14:43:17;;;;;;;2.1;2;;;;;;;50.36;14.56152;94966.38;;;;
2020/08/21 14:44:22;;;;;;;2.1;2;;;;;;;50.36;14.56152;94966.38;;;;
2020/08/21 14:45:27;;;;;;;2.1;2;;;;;;;50.36;14.56152;94966.38;;;;
2020/08/21 14:46:34;;;;;;;2.1;2;;;;;;;50.36;14.56152;94966.38;;;;
2020/08/21 14:47:37;;;;;;;2.1;2;;;;;;;50.36;14.56152;94966.38;;;;
2020/08/21 14:48:43;;;;;;;2.1;2;;;;;;;50.36;14.56152;94966.38;;;;
2020/08/21 14:49:48;;;;;;;2.1;2;;;;;;;50.36;14.56152;94966.38;;;;
2020/08/21 14:50:50;;;;;;;2.4;2.2;;;;;;;49.65;14.52734;94970.1;;;;
2020/08/21 14:51:52;;;;;;;2.4;2.2;;;;;;;49.65;14.52734;94970.1;;;;
2020/08/21 14:53:01;;;;;;;2.4;2.2;;;;;;;49.65;14.52734;94970.1;;;;
2020/08/21 14:54:06;;;;;;;2.4;2.2;;;;;;;49.65;14.52734;94970.1;;;;
2020/08/21 14:55:13;;;;;;;2.4;2.2;;;;;;;49.65;14.52734;94970.1;;;;
2020/08/21 14:56:20;;;;;;;2.4;2.2;;;;;;;49.65;14.52734;94970.1;;;;
2020/08/21 14:57:24;;;;;;;2.4;2.2;;;;;;;49.65;14.52734;94970.1;;;;
2020/08/21 14:58:30;;;;;;;2.4;2.2;;;;;;;49.65;14.52734;94970.1;;;;
2020/08/21 14:59:31;;;;;;;2.4;2.2;;;;;;;49.65;14.52734;94970.1;;;;
2020/08/21 15:00:36;;;;;;;2.2;2.1;;;;;;;48.27;14.65137;94963.85;;;;
2020/08/21 15:01:42;;;;;;;2.2;2.1;;;;;;;48.27;14.65137;94963.85;;;;
2020/08/21 15:02:44;;;;;;;2.2;2.1;;;;;;;48.27;14.65137;94963.85;;;;
2020/08/21 15:03:46;;;;;;;2.2;2.1;;;;;;;48.27;14.65137;94963.85;;;;
2020/08/21 15:04:51;;;;;;;2.2;2.1;;;;;;;48.27;14.65137;94963.85;;;;
2020/08/21 15:05:55;;;;;;;2.2;2.1;;;;;;;48.27;14.65137;94963.85;;;;
2020/08/21 15:07:01;;;;;;;2.2;2.1;;;;;;;48.27;14.65137;94963.85;;;;
2020/08/21 15:08:07;;;;;;;2.2;2.1;;;;;;;48.27;14.65137;94963.85;;;;
2020/08/21 15:09:12;;;;;;;2.2;2.1;;;;;;;48.27;14.65137;94963.85;;;;
2020/08/21 15:10:14;;;;;;;2.2;2.1;;;;;;;48.27;14.65137;94963.85;;;;
2020/08/21 15:11:20;;;;;;;3.5;2.2;;;;;;;46.45;15.49023;94951.58;;;;
2020/08/21 15:12:27;;;;;;;3.5;2.2;;;;;;;46.45;15.49023;94951.58;;;;